sensor_id;sensor_type;location;lat;lon;timestamp;pressure;altitude;pressure_sealevel;temperature;humidity
35848;BME280;22332;51.954;20.118;2023-02-12T00:00:21;101422.71;;;3.05;87.79
35848;BME280;22332;51.954;20.118;2023-02-12T00:03:47;101422.95;;;3.04;87.42
35848;BME280;22332;51.954;20.118;2023-02-12T00:06:53;101422.79;;;3.04;87.77
35848;BME280;22332;51.954;20.118;2023-02-12T00:09:58;101424.48;;;3.05;87.74
35848;BME280;22332;51.954;20.118;2023-02-12T00:13:04;101430.39;;;3.03;87.59
35848;BME280;22332;51.954;20.118;2023-02-12T00:16:11;101444.34;;;3.02;86.90
35848;BME280;22332;51.954;20.118;2023-02-12T00:19:18;101446.52;;;3.00;87.61
35848;BME280;22332;51.954;20.118;2023-02-12T00:22:23;101445.91;;;3.05;87.87
35848;BME280;22332;51.954;20.118;2023-02-12T00:25:29;101452.27;;;3.12;87.49
35848;BME280;22332;51.954;20.118;2023-02-12T00:28:35;101452.70;;;3.14;85.77
35848;BME280;22332;51.954;20.118;2023-02-12T00:31:40;101456.65;;;3.09;84.40
35848;BME280;22332;51.954;20.118;2023-02-12T00:34:46;101463.64;;;3.02;84.39
35848;BME280;22332;51.954;20.118;2023-02-12T00:37:53;101472.70;;;3.01;83.99
35848;BME280;22332;51.954;20.118;2023-02-12T00:40:59;101483.58;;;2.98;84.33
35848;BME280;22332;51.954;20.118;2023-02-12T00:44:05;101493.09;;;2.90;81.63
35848;BME280;22332;51.954;20.118;2023-02-12T00:47:12;101507.02;;;2.81;83.21
35848;BME280;22332;51.954;20.118;2023-02-12T00:50:20;101518.84;;;2.76;83.74
35848;BME280;22332;51.954;20.118;2023-02-12T00:53:25;101518.46;;;2.69;82.22
35848;BME280;22332;51.954;20.118;2023-02-12T00:56:32;101523.34;;;2.62;82.89
35848;BME280;22332;51.954;20.118;2023-02-12T00:59:38;101528.35;;;2.57;82.93
35848;BME280;22332;51.954;20.118;2023-02-12T01:02:45;101544.44;;;2.54;83.18
35848;BME280;22332;51.954;20.118;2023-02-12T01:05:51;101546.27;;;2.56;83.30
35848;BME280;22332;51.954;20.118;2023-02-12T01:08:58;101553.10;;;2.61;83.32
35848;BME280;22332;51.954;20.118;2023-02-12T01:12:06;101556.09;;;2.61;82.57
35848;BME280;22332;51.954;20.118;2023-02-12T01:15:12;101561.66;;;2.58;81.97
35848;BME280;22332;51.954;20.118;2023-02-12T01:18:17;101562.27;;;2.56;81.89
35848;BME280;22332;51.954;20.118;2023-02-12T01:21:25;101568.69;;;2.50;80.48
35848;BME280;22332;51.954;20.118;2023-02-12T01:24:32;101575.21;;;2.42;80.86
35848;BME280;22332;51.954;20.118;2023-02-12T01:27:37;101573.41;;;2.35;81.02
35848;BME280;22332;51.954;20.118;2023-02-12T01:30:43;101578.81;;;2.32;81.93
35848;BME280;22332;51.954;20.118;2023-02-12T01:33:50;101587.42;;;2.27;81.41
35848;BME280;22332;51.954;20.118;2023-02-12T01:36:57;101597.16;;;2.22;80.69
35848;BME280;22332;51.954;20.118;2023-02-12T01:40:03;101587.27;;;2.19;81.00
35848;BME280;22332;51.954;20.118;2023-02-12T01:43:11;101589.45;;;2.21;80.59
35848;BME280;22332;51.954;20.118;2023-02-12T01:46:17;101596.69;;;2.24;81.23
35848;BME280;22332;51.954;20.118;2023-02-12T01:49:25;101600.17;;;2.33;81.34
35848;BME280;22332;51.954;20.118;2023-02-12T01:52:35;101600.73;;;2.41;82.10
35848;BME280;22332;51.954;20.118;2023-02-12T01:55:42;101610.96;;;2.47;80.79
35848;BME280;22332;51.954;20.118;2023-02-12T01:58:49;101609.16;;;2.45;81.00
35848;BME280;22332;51.954;20.118;2023-02-12T02:01:56;101608.53;;;2.39;80.36
35848;BME280;22332;51.954;20.118;2023-02-12T02:05:03;101619.63;;;2.33;79.55
35848;BME280;22332;51.954;20.118;2023-02-12T02:08:09;101630.20;;;2.25;80.18
35848;BME280;22332;51.954;20.118;2023-02-12T02:11:15;101632.07;;;2.18;79.98
35848;BME280;22332;51.954;20.118;2023-02-12T02:14:39;101633.46;;;2.10;80.91
35848;BME280;22332;51.954;20.118;2023-02-12T02:17:51;101641.15;;;2.07;80.16
35848;BME280;22332;51.954;20.118;2023-02-12T02:24:52;101656.13;;;1.97;79.91
35848;BME280;22332;51.954;20.118;2023-02-12T02:28:10;101646.41;;;2.03;81.06
35848;BME280;22332;51.954;20.118;2023-02-12T02:31:21;101654.79;;;2.08;79.64
35848;BME280;22332;51.954;20.118;2023-02-12T02:34:49;101665.38;;;1.98;79.15
35848;BME280;22332;51.954;20.118;2023-02-12T02:38:03;101670.07;;;1.86;78.85
35848;BME280;22332;51.954;20.118;2023-02-12T02:41:16;101671.98;;;1.83;79.67
35848;BME280;22332;51.954;20.118;2023-02-12T02:44:30;101680.66;;;1.81;79.95
35848;BME280;22332;51.954;20.118;2023-02-12T02:47:40;101686.80;;;1.80;79.64
35848;BME280;22332;51.954;20.118;2023-02-12T02:50:50;101696.89;;;1.78;79.44
35848;BME280;22332;51.954;20.118;2023-02-12T02:54:00;101701.22;;;1.71;79.40
35848;BME280;22332;51.954;20.118;2023-02-12T02:57:13;101706.19;;;1.69;79.41
35848;BME280;22332;51.954;20.118;2023-02-12T03:00:20;101716.73;;;1.69;78.36
35848;BME280;22332;51.954;20.118;2023-02-12T03:03:31;101722.85;;;1.74;78.49
35848;BME280;22332;51.954;20.118;2023-02-12T03:06:41;101730.94;;;1.78;78.90
35848;BME280;22332;51.954;20.118;2023-02-12T03:09:51;101735.02;;;1.81;78.95
35848;BME280;22332;51.954;20.118;2023-02-12T03:13:01;101745.89;;;1.86;78.84
35848;BME280;22332;51.954;20.118;2023-02-12T03:16:15;101753.35;;;1.79;77.47
35848;BME280;22332;51.954;20.118;2023-02-12T03:19:25;101760.02;;;1.74;78.32
35848;BME280;22332;51.954;20.118;2023-02-12T03:22:35;101763.84;;;1.71;78.32
35848;BME280;22332;51.954;20.118;2023-02-12T03:25:48;101759.69;;;1.65;77.89
35848;BME280;22332;51.954;20.118;2023-02-12T03:28:57;101770.67;;;1.62;78.81
35848;BME280;22332;51.954;20.118;2023-02-12T03:32:15;101774.44;;;1.60;78.48
35848;BME280;22332;51.954;20.118;2023-02-12T03:35:27;101774.80;;;1.50;78.28
35848;BME280;22332;51.954;20.118;2023-02-12T03:38:38;101780.23;;;1.45;77.77
35848;BME280;22332;51.954;20.118;2023-02-12T03:41:48;101789.04;;;1.44;78.21
35848;BME280;22332;51.954;20.118;2023-02-12T03:44:57;101788.58;;;1.47;78.38
35848;BME280;22332;51.954;20.118;2023-02-12T03:48:09;101794.16;;;1.53;78.54
35848;BME280;22332;51.954;20.118;2023-02-12T03:51:20;101805.44;;;1.61;78.24
35848;BME280;22332;51.954;20.118;2023-02-12T03:54:28;101809.08;;;1.62;78.09
35848;BME280;22332;51.954;20.118;2023-02-12T03:57:39;101813.15;;;1.61;77.77
35848;BME280;22332;51.954;20.118;2023-02-12T04:00:45;101819.21;;;1.63;78.44
35848;BME280;22332;51.954;20.118;2023-02-12T04:03:51;101816.65;;;1.66;78.23
35848;BME280;22332;51.954;20.118;2023-02-12T04:06:56;101832.78;;;1.66;78.00
35848;BME280;22332;51.954;20.118;2023-02-12T04:10:03;101841.24;;;1.70;78.11
35848;BME280;22332;51.954;20.118;2023-02-12T04:13:14;101843.39;;;1.69;77.72
35848;BME280;22332;51.954;20.118;2023-02-12T04:16:31;101847.05;;;1.69;78.19
35848;BME280;22332;51.954;20.118;2023-02-12T04:19:49;101849.85;;;1.74;77.83
35848;BME280;22332;51.954;20.118;2023-02-12T04:23:07;101853.75;;;1.73;77.59
35848;BME280;22332;51.954;20.118;2023-02-12T04:26:23;101854.20;;;1.71;77.12
35848;BME280;22332;51.954;20.118;2023-02-12T04:29:34;101861.37;;;1.66;77.37
35848;BME280;22332;51.954;20.118;2023-02-12T04:32:48;101867.79;;;1.68;78.15
35848;BME280;22332;51.954;20.118;2023-02-12T04:36:00;101874.23;;;1.69;77.48
35848;BME280;22332;51.954;20.118;2023-02-12T04:39:09;101880.48;;;1.71;78.12
35848;BME280;22332;51.954;20.118;2023-02-12T04:42:16;101883.58;;;1.78;77.36
35848;BME280;22332;51.954;20.118;2023-02-12T04:45:23;101888.59;;;1.85;77.68
35848;BME280;22332;51.954;20.118;2023-02-12T04:48:30;101885.30;;;1.88;77.49
35848;BME280;22332;51.954;20.118;2023-02-12T04:51:38;101888.14;;;1.87;77.38
35848;BME280;22332;51.954;20.118;2023-02-12T04:54:43;101884.16;;;1.91;78.06
35848;BME280;22332;51.954;20.118;2023-02-12T04:57:49;101887.30;;;1.96;77.92
35848;BME280;22332;51.954;20.118;2023-02-12T05:00:54;101881.73;;;1.99;77.67
35848;BME280;22332;51.954;20.118;2023-02-12T05:04:03;101881.73;;;2.04;78.07
35848;BME280;22332;51.954;20.118;2023-02-12T05:07:11;101882.53;;;2.02;77.34
35848;BME280;22332;51.954;20.118;2023-02-12T05:10:17;101890.19;;;1.94;76.80
35848;BME280;22332;51.954;20.118;2023-02-12T05:13:22;101899.71;;;1.87;77.25
35848;BME280;22332;51.954;20.118;2023-02-12T05:16:28;101905.79;;;1.80;76.88
35848;BME280;22332;51.954;20.118;2023-02-12T05:19:33;101905.33;;;1.73;76.70
35848;BME280;22332;51.954;20.118;2023-02-12T05:22:39;101908.14;;;1.68;76.97
35848;BME280;22332;51.954;20.118;2023-02-12T05:25:44;101911.46;;;1.63;76.67
35848;BME280;22332;51.954;20.118;2023-02-12T05:28:50;101910.40;;;1.64;77.69
35848;BME280;22332;51.954;20.118;2023-02-12T05:31:56;101913.83;;;1.71;77.47
35848;BME280;22332;51.954;20.118;2023-02-12T05:35:01;101917.42;;;1.78;77.91
35848;BME280;22332;51.954;20.118;2023-02-12T05:38:07;101911.89;;;1.90;77.57
35848;BME280;22332;51.954;20.118;2023-02-12T05:41:14;101915.10;;;1.99;77.49
35848;BME280;22332;51.954;20.118;2023-02-12T05:44:20;101923.54;;;2.03;77.66
35848;BME280;22332;51.954;20.118;2023-02-12T05:47:25;101926.23;;;2.11;77.83
35848;BME280;22332;51.954;20.118;2023-02-12T05:50:31;101933.06;;;2.21;77.50
35848;BME280;22332;51.954;20.118;2023-02-12T05:53:37;101937.97;;;2.26;77.55
35848;BME280;22332;51.954;20.118;2023-02-12T05:56:45;101946.54;;;2.27;77.03
35848;BME280;22332;51.954;20.118;2023-02-12T05:59:51;101951.94;;;2.23;77.01
35848;BME280;22332;51.954;20.118;2023-02-12T06:02:56;101955.31;;;2.17;77.10
35848;BME280;22332;51.954;20.118;2023-02-12T06:06:02;101968.26;;;2.09;76.60
35848;BME280;22332;51.954;20.118;2023-02-12T06:09:08;101973.48;;;2.01;77.22
35848;BME280;22332;51.954;20.118;2023-02-12T06:12:15;101979.84;;;2.00;77.44
35848;BME280;22332;51.954;20.118;2023-02-12T06:15:21;101989.30;;;2.05;77.47
35848;BME280;22332;51.954;20.118;2023-02-12T06:18:27;102001.95;;;2.09;77.54
35848;BME280;22332;51.954;20.118;2023-02-12T06:21:33;102000.37;;;2.09;77.23
35848;BME280;22332;51.954;20.118;2023-02-12T06:24:39;102006.23;;;2.08;77.57
35848;BME280;22332;51.954;20.118;2023-02-12T06:27:44;102013.67;;;2.15;77.51
35848;BME280;22332;51.954;20.118;2023-02-12T06:30:50;102013.49;;;2.20;77.42
35848;BME280;22332;51.954;20.118;2023-02-12T06:33:57;102013.56;;;2.28;77.42
35848;BME280;22332;51.954;20.118;2023-02-12T06:37:03;102020.77;;;2.37;76.90
35848;BME280;22332;51.954;20.118;2023-02-12T06:40:09;102032.64;;;2.34;77.08
35848;BME280;22332;51.954;20.118;2023-02-12T06:43:15;102039.75;;;2.32;76.80
35848;BME280;22332;51.954;20.118;2023-02-12T06:46:20;102037.16;;;2.31;77.33
35848;BME280;22332;51.954;20.118;2023-02-12T06:49:26;102039.77;;;2.36;77.44
35848;BME280;22332;51.954;20.118;2023-02-12T06:52:31;102042.79;;;2.41;76.45
35848;BME280;22332;51.954;20.118;2023-02-12T06:55:37;102042.79;;;2.45;77.02
35848;BME280;22332;51.954;20.118;2023-02-12T06:58:44;102043.52;;;2.50;76.78
35848;BME280;22332;51.954;20.118;2023-02-12T07:01:50;102047.95;;;2.48;76.80
35848;BME280;22332;51.954;20.118;2023-02-12T07:04:55;102052.44;;;2.46;76.93
35848;BME280;22332;51.954;20.118;2023-02-12T07:08:01;102051.98;;;2.44;76.84
35848;BME280;22332;51.954;20.118;2023-02-12T07:11:07;102055.61;;;2.45;77.13
35848;BME280;22332;51.954;20.118;2023-02-12T07:14:15;102050.23;;;2.48;76.76
35848;BME280;22332;51.954;20.118;2023-02-12T07:17:21;102056.86;;;2.45;77.13
35848;BME280;22332;51.954;20.118;2023-02-12T07:20:26;102062.89;;;2.43;76.40
35848;BME280;22332;51.954;20.118;2023-02-12T07:23:32;102068.95;;;2.41;76.09
35848;BME280;22332;51.954;20.118;2023-02-12T07:26:37;102081.64;;;2.44;76.10
35848;BME280;22332;51.954;20.118;2023-02-12T07:29:43;102092.42;;;2.37;75.78
35848;BME280;22332;51.954;20.118;2023-02-12T07:32:48;102090.38;;;2.26;76.32
35848;BME280;22332;51.954;20.118;2023-02-12T07:35:54;102085.33;;;2.29;77.02
35848;BME280;22332;51.954;20.118;2023-02-12T07:39:00;102091.39;;;2.46;77.35
35848;BME280;22332;51.954;20.118;2023-02-12T07:42:05;102092.27;;;2.66;77.16
35848;BME280;22332;51.954;20.118;2023-02-12T07:45:11;102098.27;;;2.80;76.57
35848;BME280;22332;51.954;20.118;2023-02-12T07:48:17;102103.23;;;2.83;76.15
35848;BME280;22332;51.954;20.118;2023-02-12T07:51:23;102102.67;;;2.79;76.01
35848;BME280;22332;51.954;20.118;2023-02-12T07:54:29;102106.34;;;2.75;76.26
35848;BME280;22332;51.954;20.118;2023-02-12T07:57:36;102111.63;;;2.69;76.52
35848;BME280;22332;51.954;20.118;2023-02-12T08:00:41;102117.16;;;2.67;76.82
35848;BME280;22332;51.954;20.118;2023-02-12T08:03:48;102114.73;;;2.62;76.30
35848;BME280;22332;51.954;20.118;2023-02-12T08:06:55;102114.98;;;2.54;76.74
35848;BME280;22332;51.954;20.118;2023-02-12T08:10:01;102113.40;;;2.50;76.68
35848;BME280;22332;51.954;20.118;2023-02-12T08:13:06;102114.36;;;2.53;76.95
35848;BME280;22332;51.954;20.118;2023-02-12T08:16:13;102115.92;;;2.53;76.07
35848;BME280;22332;51.954;20.118;2023-02-12T08:19:19;102116.45;;;2.53;76.49
35848;BME280;22332;51.954;20.118;2023-02-12T08:22:25;102113.52;;;2.61;76.77
35848;BME280;22332;51.954;20.118;2023-02-12T08:25:31;102119.23;;;2.73;76.64
35848;BME280;22332;51.954;20.118;2023-02-12T08:28:38;102116.46;;;2.91;76.57
35848;BME280;22332;51.954;20.118;2023-02-12T08:31:45;102117.41;;;3.03;75.81
35848;BME280;22332;51.954;20.118;2023-02-12T08:34:50;102119.92;;;3.06;75.64
35848;BME280;22332;51.954;20.118;2023-02-12T08:37:56;102124.31;;;3.16;75.33
35848;BME280;22332;51.954;20.118;2023-02-12T08:41:05;102124.23;;;3.27;75.80
35848;BME280;22332;51.954;20.118;2023-02-12T08:44:11;102116.95;;;3.42;74.22
35848;BME280;22332;51.954;20.118;2023-02-12T08:47:17;102119.39;;;3.43;74.00
35848;BME280;22332;51.954;20.118;2023-02-12T08:50:23;102122.11;;;3.36;71.64
35848;BME280;22332;51.954;20.118;2023-02-12T08:53:28;102122.02;;;3.34;74.16
35848;BME280;22332;51.954;20.118;2023-02-12T08:56:34;102119.72;;;3.48;74.11
35848;BME280;22332;51.954;20.118;2023-02-12T08:59:40;102116.39;;;3.61;74.07
35848;BME280;22332;51.954;20.118;2023-02-12T09:02:48;102119.31;;;3.67;71.54
35848;BME280;22332;51.954;20.118;2023-02-12T09:05:54;102122.56;;;3.51;72.67
35848;BME280;22332;51.954;20.118;2023-02-12T09:08:59;102123.69;;;3.59;74.30
35848;BME280;22332;51.954;20.118;2023-02-12T09:12:05;102126.41;;;3.78;74.33
35848;BME280;22332;51.954;20.118;2023-02-12T09:15:11;102132.52;;;3.88;73.02
35848;BME280;22332;51.954;20.118;2023-02-12T09:18:17;102137.74;;;3.85;73.24
35848;BME280;22332;51.954;20.118;2023-02-12T09:21:22;102139.50;;;3.94;73.89
35848;BME280;22332;51.954;20.118;2023-02-12T09:24:28;102144.39;;;4.04;73.42
35848;BME280;22332;51.954;20.118;2023-02-12T09:27:34;102149.38;;;4.10;73.38
35848;BME280;22332;51.954;20.118;2023-02-12T09:30:40;102154.81;;;4.23;73.60
35848;BME280;22332;51.954;20.118;2023-02-12T09:33:45;102164.89;;;4.35;72.71
35848;BME280;22332;51.954;20.118;2023-02-12T09:36:51;102165.41;;;4.39;73.46
35848;BME280;22332;51.954;20.118;2023-02-12T09:39:56;102165.44;;;4.51;73.18
35848;BME280;22332;51.954;20.118;2023-02-12T09:43:14;102169.57;;;4.57;72.97
35848;BME280;22332;51.954;20.118;2023-02-12T09:46:28;102169.64;;;4.59;71.56
35848;BME280;22332;51.954;20.118;2023-02-12T09:49:48;102177.66;;;4.37;71.18
35848;BME280;22332;51.954;20.118;2023-02-12T09:52:58;102177.45;;;4.13;70.31
35848;BME280;22332;51.954;20.118;2023-02-12T09:56:09;102182.90;;;3.96;71.33
35848;BME280;22332;51.954;20.118;2023-02-12T09:59:22;102180.64;;;3.91;69.71
35848;BME280;22332;51.954;20.118;2023-02-12T10:02:35;102179.13;;;3.89;71.58
35848;BME280;22332;51.954;20.118;2023-02-12T10:05:46;102178.73;;;4.16;72.34
35848;BME280;22332;51.954;20.118;2023-02-12T10:09:21;102174.65;;;4.42;71.75
35848;BME280;22332;51.954;20.118;2023-02-12T10:12:37;102176.83;;;4.44;69.74
35848;BME280;22332;51.954;20.118;2023-02-12T10:15:48;102176.74;;;4.50;70.23
35848;BME280;22332;51.954;20.118;2023-02-12T10:19:07;102173.47;;;4.49;68.31
35848;BME280;22332;51.954;20.118;2023-02-12T10:22:25;102174.05;;;4.39;70.25
35848;BME280;22332;51.954;20.118;2023-02-12T10:25:38;102178.48;;;4.51;70.94
35848;BME280;22332;51.954;20.118;2023-02-12T10:28:49;102175.05;;;4.81;71.44
35848;BME280;22332;51.954;20.118;2023-02-12T10:31:58;102169.13;;;5.06;71.24
35848;BME280;22332;51.954;20.118;2023-02-12T10:35:14;102171.70;;;5.20;68.45
35848;BME280;22332;51.954;20.118;2023-02-12T10:38:22;102163.69;;;5.10;69.67
35848;BME280;22332;51.954;20.118;2023-02-12T10:41:31;102169.20;;;5.05;68.70
35848;BME280;22332;51.954;20.118;2023-02-12T10:44:40;102163.09;;;4.84;66.55
35848;BME280;22332;51.954;20.118;2023-02-12T10:47:46;102161.48;;;4.53;66.72
35848;BME280;22332;51.954;20.118;2023-02-12T10:51:01;102164.38;;;4.30;67.57
35848;BME280;22332;51.954;20.118;2023-02-12T10:54:32;102172.95;;;4.24;67.22
35848;BME280;22332;51.954;20.118;2023-02-12T10:57:39;102171.02;;;4.02;67.80
35848;BME280;22332;51.954;20.118;2023-02-12T11:00:44;102164.86;;;4.02;69.53
35848;BME280;22332;51.954;20.118;2023-02-12T11:03:51;102156.66;;;4.13;69.86
35848;BME280;22332;51.954;20.118;2023-02-12T11:07:02;102161.17;;;4.19;68.50
35848;BME280;22332;51.954;20.118;2023-02-12T11:10:20;102155.55;;;4.10;68.85
35848;BME280;22332;51.954;20.118;2023-02-12T11:13:30;102154.63;;;4.19;69.82
35848;BME280;22332;51.954;20.118;2023-02-12T11:16:39;102153.61;;;4.31;69.81
35848;BME280;22332;51.954;20.118;2023-02-12T11:20:03;102152.11;;;4.37;69.01
35848;BME280;22332;51.954;20.118;2023-02-12T11:23:26;102145.92;;;4.41;68.95
35848;BME280;22332;51.954;20.118;2023-02-12T11:26:32;102143.89;;;4.44;68.72
35848;BME280;22332;51.954;20.118;2023-02-12T11:29:38;102139.01;;;4.46;68.82
35848;BME280;22332;51.954;20.118;2023-02-12T11:32:43;102142.55;;;4.50;67.79
35848;BME280;22332;51.954;20.118;2023-02-12T11:35:54;102150.34;;;4.29;65.66
35848;BME280;22332;51.954;20.118;2023-02-12T11:39:01;102143.16;;;4.07;66.42
35848;BME280;22332;51.954;20.118;2023-02-12T11:42:16;102144.70;;;4.00;67.40
35848;BME280;22332;51.954;20.118;2023-02-12T11:45:27;102149.25;;;4.09;68.62
35848;BME280;22332;51.954;20.118;2023-02-12T11:48:36;102150.39;;;4.28;68.97
35848;BME280;22332;51.954;20.118;2023-02-12T11:51:47;102151.66;;;4.47;68.80
35848;BME280;22332;51.954;20.118;2023-02-12T11:54:55;102152.13;;;4.61;68.56
35848;BME280;22332;51.954;20.118;2023-02-12T11:58:08;102149.65;;;4.61;65.97
35848;BME280;22332;51.954;20.118;2023-02-12T12:01:21;102150.60;;;4.51;66.48
35848;BME280;22332;51.954;20.118;2023-02-12T12:04:28;102149.27;;;4.50;67.50
35848;BME280;22332;51.954;20.118;2023-02-12T12:07:37;102142.35;;;4.55;67.56
35848;BME280;22332;51.954;20.118;2023-02-12T12:10:47;102132.24;;;4.68;68.48
35848;BME280;22332;51.954;20.118;2023-02-12T12:14:00;102132.98;;;4.87;68.35
35848;BME280;22332;51.954;20.118;2023-02-12T12:17:12;102131.59;;;4.98;68.36
35848;BME280;22332;51.954;20.118;2023-02-12T12:20:40;102125.98;;;5.01;67.16
35848;BME280;22332;51.954;20.118;2023-02-12T12:23:51;102126.30;;;4.82;66.55
35848;BME280;22332;51.954;20.118;2023-02-12T12:27:03;102135.34;;;4.74;67.08
35848;BME280;22332;51.954;20.118;2023-02-12T12:30:37;102138.67;;;4.74;67.82
35848;BME280;22332;51.954;20.118;2023-02-12T12:33:48;102128.63;;;4.82;67.88
35848;BME280;22332;51.954;20.118;2023-02-12T12:37:20;102125.57;;;4.91;67.52
35848;BME280;22332;51.954;20.118;2023-02-12T12:40:45;102115.83;;;5.00;67.80
35848;BME280;22332;51.954;20.118;2023-02-12T12:44:07;102115.30;;;5.11;67.18
35848;BME280;22332;51.954;20.118;2023-02-12T12:47:23;102103.62;;;5.16;67.27
35848;BME280;22332;51.954;20.118;2023-02-12T12:50:54;102102.65;;;5.25;66.73
35848;BME280;22332;51.954;20.118;2023-02-12T12:54:11;102104.71;;;5.33;66.45
35848;BME280;22332;51.954;20.118;2023-02-12T12:57:32;102099.64;;;5.36;66.34
35848;BME280;22332;51.954;20.118;2023-02-12T13:00:55;102096.09;;;5.29;64.97
35848;BME280;22332;51.954;20.118;2023-02-12T13:04:30;102095.02;;;5.30;66.24
35848;BME280;22332;51.954;20.118;2023-02-12T13:07:49;102095.79;;;5.32;66.66
35848;BME280;22332;51.954;20.118;2023-02-12T13:11:04;102104.84;;;5.34;65.74
35848;BME280;22332;51.954;20.118;2023-02-12T13:14:34;102117.11;;;5.32;66.34
35848;BME280;22332;51.954;20.118;2023-02-12T13:17:48;102109.95;;;5.27;66.17
35848;BME280;22332;51.954;20.118;2023-02-12T13:21:02;102110.89;;;5.22;66.10
35848;BME280;22332;51.954;20.118;2023-02-12T13:24:19;102109.64;;;5.19;66.44
35848;BME280;22332;51.954;20.118;2023-02-12T13:27:31;102111.84;;;5.17;66.24
35848;BME280;22332;51.954;20.118;2023-02-12T13:30:42;102110.77;;;5.14;65.88
35848;BME280;22332;51.954;20.118;2023-02-12T13:33:52;102113.56;;;4.99;64.42
35848;BME280;22332;51.954;20.118;2023-02-12T13:37:00;102118.38;;;4.78;64.73
35848;BME280;22332;51.954;20.118;2023-02-12T13:40:16;102121.22;;;4.70;65.83
35848;BME280;22332;51.954;20.118;2023-02-12T13:43:33;102115.30;;;4.76;66.60
35848;BME280;22332;51.954;20.118;2023-02-12T13:46:53;102109.15;;;4.84;66.20
35848;BME280;22332;51.954;20.118;2023-02-12T13:50:04;102100.27;;;4.89;66.46
35848;BME280;22332;51.954;20.118;2023-02-12T13:53:21;102101.83;;;4.93;66.06
35848;BME280;22332;51.954;20.118;2023-02-12T13:56:39;102089.91;;;4.92;66.42
35848;BME280;22332;51.954;20.118;2023-02-12T13:59:47;102088.02;;;4.95;65.91
35848;BME280;22332;51.954;20.118;2023-02-12T14:02:53;102091.42;;;4.97;66.47
35848;BME280;22332;51.954;20.118;2023-02-12T14:06:16;102092.40;;;5.03;66.29
35848;BME280;22332;51.954;20.118;2023-02-12T14:09:28;102093.54;;;5.01;65.59
35848;BME280;22332;51.954;20.118;2023-02-12T14:12:36;102099.92;;;4.97;65.78
35848;BME280;22332;51.954;20.118;2023-02-12T14:15:48;102100.45;;;4.93;65.77
35848;BME280;22332;51.954;20.118;2023-02-12T14:22:59;102110.98;;;4.90;66.32
35848;BME280;22332;51.954;20.118;2023-02-12T14:26:07;102107.05;;;4.91;66.11
35848;BME280;22332;51.954;20.118;2023-02-12T14:29:19;102102.06;;;4.92;66.11
35848;BME280;22332;51.954;20.118;2023-02-12T14:33:08;102098.41;;;4.91;66.06
35848;BME280;22332;51.954;20.118;2023-02-12T14:36:16;102098.16;;;4.89;66.13
35848;BME280;22332;51.954;20.118;2023-02-12T14:39:29;102103.91;;;4.86;65.85
35848;BME280;22332;51.954;20.118;2023-02-12T14:42:42;102101.50;;;4.81;65.98
35848;BME280;22332;51.954;20.118;2023-02-12T14:45:49;102097.06;;;4.78;65.89
35848;BME280;22332;51.954;20.118;2023-02-12T14:48:56;102093.41;;;4.73;65.92
35848;BME280;22332;51.954;20.118;2023-02-12T14:52:03;102090.95;;;4.69;65.99
35848;BME280;22332;51.954;20.118;2023-02-12T14:55:20;102098.00;;;4.61;65.62
35848;BME280;22332;51.954;20.118;2023-02-12T14:58:28;102096.77;;;4.50;65.79
35848;BME280;22332;51.954;20.118;2023-02-12T15:01:35;102095.79;;;4.40;66.08
35848;BME280;22332;51.954;20.118;2023-02-12T15:04:45;102096.68;;;4.36;66.11
35848;BME280;22332;51.954;20.118;2023-02-12T15:07:52;102098.83;;;4.27;66.22
35848;BME280;22332;51.954;20.118;2023-02-12T15:11:05;102105.73;;;4.21;66.26
35848;BME280;22332;51.954;20.118;2023-02-12T15:14:17;102110.02;;;4.17;66.22
35848;BME280;22332;51.954;20.118;2023-02-12T15:17:27;102112.21;;;4.10;66.22
35848;BME280;22332;51.954;20.118;2023-02-12T15:20:39;102110.39;;;4.03;66.19
35848;BME280;22332;51.954;20.118;2023-02-12T15:24:04;102114.77;;;3.96;66.27
35848;BME280;22332;51.954;20.118;2023-02-12T15:27:13;102111.47;;;3.86;66.36
35848;BME280;22332;51.954;20.118;2023-02-12T15:30:23;102111.36;;;3.81;66.53
35848;BME280;22332;51.954;20.118;2023-02-12T15:33:31;102109.14;;;3.74;66.39
35848;BME280;22332;51.954;20.118;2023-02-12T15:36:38;102111.77;;;3.70;66.58
35848;BME280;22332;51.954;20.118;2023-02-12T15:39:52;102112.86;;;3.65;66.58
35848;BME280;22332;51.954;20.118;2023-02-12T15:43:00;102118.70;;;3.60;66.63
35848;BME280;22332;51.954;20.118;2023-02-12T15:46:15;102120.39;;;3.53;66.69
35848;BME280;22332;51.954;20.118;2023-02-12T15:49:23;102118.20;;;3.46;66.84
35848;BME280;22332;51.954;20.118;2023-02-12T15:52:36;102116.84;;;3.41;66.84
35848;BME280;22332;51.954;20.118;2023-02-12T15:55:47;102116.89;;;3.35;66.83
35848;BME280;22332;51.954;20.118;2023-02-12T15:58:54;102115.59;;;3.28;66.89
35848;BME280;22332;51.954;20.118;2023-02-12T16:02:02;102120.63;;;3.20;66.94
35848;BME280;22332;51.954;20.118;2023-02-12T16:05:10;102121.27;;;3.12;66.82
35848;BME280;22332;51.954;20.118;2023-02-12T16:08:20;102123.73;;;3.04;66.81
35848;BME280;22332;51.954;20.118;2023-02-12T16:11:28;102119.14;;;2.95;66.87
35848;BME280;22332;51.954;20.118;2023-02-12T16:14:39;102117.08;;;2.84;66.91
35848;BME280;22332;51.954;20.118;2023-02-12T16:17:48;102122.64;;;2.71;67.29
35848;BME280;22332;51.954;20.118;2023-02-12T16:21:04;102123.31;;;2.63;67.16
35848;BME280;22332;51.954;20.118;2023-02-12T16:24:22;102123.64;;;2.54;67.19
35848;BME280;22332;51.954;20.118;2023-02-12T16:27:31;102122.30;;;2.46;67.25
35848;BME280;22332;51.954;20.118;2023-02-12T16:30:38;102121.87;;;2.39;67.18
35848;BME280;22332;51.954;20.118;2023-02-12T16:33:47;102124.19;;;2.33;67.45
35848;BME280;22332;51.954;20.118;2023-02-12T16:36:55;102134.06;;;2.27;67.28
35848;BME280;22332;51.954;20.118;2023-02-12T16:40:18;102128.64;;;2.21;67.24